createdAt,value
2023-03-30T00:00:02.860Z,99760.69
2023-03-30T00:05:27.942Z,99779.84
2023-03-30T00:08:11.861Z,99774.63
2023-03-30T00:10:47.267Z,99798.97
2023-03-30T00:13:17.335Z,99777.50
2023-03-30T00:15:53.066Z,99781.53
2023-03-30T00:18:42.533Z,99778.50
2023-03-30T00:21:18.830Z,99784.88
2023-03-30T00:23:50.912Z,99795.78
2023-03-30T00:26:23.274Z,99790.91
2023-03-30T00:28:58.086Z,99798.97
2023-03-30T00:34:21.211Z,99780.84
2023-03-30T00:36:49.835Z,99798.94
2023-03-30T00:39:23.225Z,99805.34
2023-03-30T00:42:00.004Z,99779.16
2023-03-30T00:45:12.811Z,99788.25
2023-03-30T00:47:44.626Z,99792.91
2023-03-30T00:50:17.101Z,99790.22
2023-03-30T00:55:37.028Z,99791.25
2023-03-30T00:58:07.084Z,99785.88
2023-03-30T01:02:00.024Z,99793.59
2023-03-30T01:10:41.417Z,99801.63
2023-03-30T01:16:40.058Z,99813.25
2023-03-30T01:19:44.664Z,99800.13
2023-03-30T01:34:05.812Z,99801.31
2023-03-30T01:37:28.594Z,99804.69
2023-03-30T01:43:59.232Z,99801.16
2023-03-30T01:46:32.668Z,99796.25
2023-03-30T01:49:35.234Z,99787.88
2023-03-30T02:01:40.381Z,99777.44
2023-03-30T02:04:33.097Z,99779.16
2023-03-30T02:10:30.824Z,99793.91
2023-03-30T02:13:10.121Z,99782.81
2023-03-30T02:15:58.024Z,99783.84
2023-03-30T02:19:01.100Z,99787.72
2023-03-30T02:21:32.013Z,99774.13
2023-03-30T02:24:04.013Z,99790.88
2023-03-30T02:26:51.275Z,99766.38
2023-03-30T02:29:23.280Z,99776.47
2023-03-30T02:31:56.135Z,99762.03
2023-03-30T02:34:48.087Z,99787.22
2023-03-30T02:37:37.228Z,99766.25
2023-03-30T02:40:34.980Z,99771.28
2023-03-30T02:43:30.697Z,99784.38
2023-03-30T02:46:23.675Z,99760.69
2023-03-30T02:49:02.175Z,99770.91
2023-03-30T02:51:43.944Z,99760.53
2023-03-30T02:54:24.273Z,99784.84
2023-03-30T02:56:59.234Z,99791.91
2023-03-30T02:59:32.377Z,99764.03
2023-03-30T03:02:09.360Z,99790.41
2023-03-30T03:04:44.998Z,99756.97
2023-03-30T03:07:18.267Z,99766.06
2023-03-30T03:09:48.394Z,99758.31
2023-03-30T03:12:17.875Z,99756.31
2023-03-30T03:14:46.705Z,99750.13
2023-03-30T03:17:22.821Z,99748.59
2023-03-30T03:19:57.477Z,99751.09
2023-03-30T03:22:35.682Z,99767.41
2023-03-30T03:25:11.216Z,99752.63
2023-03-30T03:27:40.653Z,99752.28
2023-03-30T03:30:09.944Z,99755.63
2023-03-30T03:32:38.642Z,99768.91
2023-03-30T03:35:08.275Z,99746.75
2023-03-30T03:37:42.071Z,99755.16
2023-03-30T03:40:11.823Z,99761.38
2023-03-30T03:42:45.226Z,99743.09
2023-03-30T03:45:14.704Z,99736.72
2023-03-30T03:47:45.946Z,99743.59
2023-03-30T03:50:15.548Z,99765.06
2023-03-30T03:52:46.173Z,99744.41
2023-03-30T03:55:14.958Z,99778.84
2023-03-30T03:57:45.131Z,99741.91
2023-03-30T04:00:18.074Z,99738.03
2023-03-30T04:02:48.430Z,99735.19
2023-03-30T04:05:16.720Z,99744.41
2023-03-30T04:07:47.316Z,99747.59
2023-03-30T04:10:16.261Z,99757.50
2023-03-30T04:12:44.345Z,99750.44
2023-03-30T04:15:12.820Z,99755.66
2023-03-30T04:17:41.060Z,99756.50
2023-03-30T04:20:12.729Z,99762.53
2023-03-30T04:22:42.337Z,99753.31
2023-03-30T04:25:15.267Z,99757.66
2023-03-30T04:27:50.469Z,99759.00
2023-03-30T04:30:19.388Z,99758.50
2023-03-30T04:32:54.918Z,99755.31
2023-03-30T04:35:25.504Z,99764.72
2023-03-30T04:37:54.264Z,99759.03
2023-03-30T04:40:36.867Z,99772.44
2023-03-30T04:43:10.553Z,99761.03
2023-03-30T04:45:52.005Z,99769.59
2023-03-30T04:48:28.832Z,99759.50
2023-03-30T04:51:01.317Z,99759.50
2023-03-30T04:56:54.328Z,99774.97
2023-03-30T04:59:30.799Z,99757.34
2023-03-30T05:02:04.906Z,99750.31
2023-03-30T05:04:52.751Z,99761.88
2023-03-30T05:07:45.167Z,99772.47
2023-03-30T05:10:19.222Z,99790.59
2023-03-30T05:12:53.754Z,99790.25
2023-03-30T05:15:25.751Z,99793.28
2023-03-30T05:17:55.103Z,99786.22
2023-03-30T05:20:24.089Z,99785.91
2023-03-30T05:22:52.537Z,99790.94
2023-03-30T05:25:21.894Z,99819.47
2023-03-30T05:27:51.696Z,99786.91
2023-03-30T05:30:22.832Z,99795.81
2023-03-30T05:32:56.124Z,99813.78
2023-03-30T05:35:27.652Z,99793.59
2023-03-30T05:37:57.258Z,99808.38
2023-03-30T05:40:30.916Z,99805.38
2023-03-30T05:43:04.358Z,99817.13
2023-03-30T05:45:39.185Z,99803.50
2023-03-30T05:48:09.103Z,99808.72
2023-03-30T05:50:59.898Z,99822.81
2023-03-30T05:56:39.030Z,99855.72
2023-03-30T05:59:08.709Z,99850.63
2023-03-30T06:01:39.533Z,99845.28
2023-03-30T06:04:09.068Z,99862.88
2023-03-30T06:06:41.550Z,99853.84
2023-03-30T06:09:19.451Z,99843.31
2023-03-30T06:11:52.227Z,99847.81
2023-03-30T06:14:30.731Z,99864.09
2023-03-30T06:16:59.692Z,99856.38
2023-03-30T06:19:35.269Z,99846.34
2023-03-30T06:22:06.426Z,99854.22
2023-03-30T06:24:34.513Z,99855.72
2023-03-30T06:27:04.662Z,99856.22
2023-03-30T06:29:39.446Z,99867.16
2023-03-30T06:32:13.749Z,99869.31
2023-03-30T06:34:47.848Z,99871.00
2023-03-30T06:37:17.706Z,99890.63
2023-03-30T06:39:56.372Z,99876.22
2023-03-30T06:45:49.659Z,99863.44
2023-03-30T06:48:24.530Z,99892.81
2023-03-30T06:56:42.640Z,99895.31
2023-03-30T06:59:17.726Z,99900.56
2023-03-30T07:02:33.049Z,99904.75
2023-03-30T07:05:07.373Z,99907.09
2023-03-30T07:08:04.653Z,99905.75
2023-03-30T07:10:33.763Z,99900.53
2023-03-30T07:13:17.956Z,99907.75
2023-03-30T07:45:17.611Z,99933.09
2023-03-30T07:47:57.734Z,99936.59
2023-03-30T07:53:53.657Z,99931.22
2023-03-30T07:59:23.113Z,99936.28
2023-03-30T08:05:05.030Z,99948.38
2023-03-30T08:07:57.925Z,99964.50
2023-03-30T08:10:26.427Z,99956.63
2023-03-30T08:12:57.783Z,99959.44
2023-03-30T08:15:26.939Z,99963.47
2023-03-30T08:17:58.083Z,99973.94
2023-03-30T08:20:28.093Z,99967.06
2023-03-30T08:22:56.391Z,99981.66
2023-03-30T08:25:24.698Z,99972.94
2023-03-30T08:27:53.082Z,99976.97
2023-03-30T08:30:22.763Z,99968.38
2023-03-30T08:32:54.935Z,99957.09
2023-03-30T08:35:23.843Z,99979.47
2023-03-30T08:37:54.773Z,99984.31
2023-03-30T08:40:28.286Z,99984.66
2023-03-30T08:43:25.164Z,99993.06
2023-03-30T08:45:56.491Z,99979.59
2023-03-30T08:48:27.413Z,99988.00
2023-03-30T08:50:59.854Z,99999.41
2023-03-30T08:53:34.892Z,99990.97
2023-03-30T08:56:09.512Z,99989.28
2023-03-30T08:58:47.998Z,99994.47
2023-03-30T09:01:22.218Z,99987.84
2023-03-30T09:04:04.317Z,99989.91
2023-03-30T09:06:47.320Z,100004.69
2023-03-30T09:09:21.172Z,100006.72
2023-03-30T09:12:17.554Z,100005.38
2023-03-30T09:14:52.115Z,100015.16
2023-03-30T09:17:24.987Z,100011.63
2023-03-30T09:19:58.395Z,100004.69
2023-03-30T09:22:33.457Z,100004.19
2023-03-30T09:25:03.976Z,100013.00
2023-03-30T09:27:44.790Z,100009.28
2023-03-30T09:30:20.713Z,100020.50
2023-03-30T09:33:00.559Z,100029.06
2023-03-30T09:35:42.515Z,100033.44
2023-03-30T09:38:15.479Z,100027.41
2023-03-30T09:41:17.369Z,100040.75
2023-03-30T09:43:48.968Z,100032.81
2023-03-30T09:49:18.496Z,100065.84
2023-03-30T09:51:57.483Z,100041.28
2023-03-30T09:54:26.364Z,100036.22
2023-03-30T09:56:58.209Z,100042.97
2023-03-30T09:59:32.124Z,100047.34
2023-03-30T10:02:22.793Z,100035.22
2023-03-30T10:05:00.603Z,100029.81
2023-03-30T10:07:39.239Z,100040.19
2023-03-30T10:10:28.624Z,100045.25
2023-03-30T10:13:08.319Z,100036.84
2023-03-30T10:15:44.558Z,100040.19
2023-03-30T10:18:30.021Z,100025.84
2023-03-30T10:21:03.884Z,100056.81
2023-03-30T10:23:35.550Z,100052.56
2023-03-30T10:26:08.330Z,100046.84
2023-03-30T10:28:38.777Z,100035.06
2023-03-30T10:31:16.201Z,100046.22
2023-03-30T10:33:46.337Z,100052.28
2023-03-30T10:36:19.286Z,100040.59
2023-03-30T10:38:50.329Z,100047.28
2023-03-30T10:41:23.831Z,100046.72
2023-03-30T10:44:19.498Z,100048.03
2023-03-30T10:46:53.422Z,100050.00
2023-03-30T10:49:34.942Z,100073.81
2023-03-30T10:52:11.550Z,100052.72
2023-03-30T10:54:44.098Z,100036.09
2023-03-30T10:57:15.663Z,100060.97
2023-03-30T11:00:04.465Z,100055.72
2023-03-30T11:02:47.065Z,100053.09
2023-03-30T11:05:18.515Z,100067.09
2023-03-30T11:07:54.558Z,100065.53
2023-03-30T11:10:31.754Z,100067.97
2023-03-30T11:13:03.270Z,100048.50
2023-03-30T11:15:38.969Z,100032.00
2023-03-30T11:18:14.884Z,100065.16
2023-03-30T11:20:48.926Z,100055.75
2023-03-30T11:23:25.809Z,100046.63
2023-03-30T11:26:01.280Z,100042.06
2023-03-30T11:28:52.965Z,100067.84
2023-03-30T11:31:38.375Z,100053.34
2023-03-30T11:34:17.886Z,100051.75
2023-03-30T11:36:56.258Z,100057.16
2023-03-30T11:39:33.057Z,100068.47
2023-03-30T11:42:15.249Z,100062.56
2023-03-30T11:44:44.838Z,100047.69
2023-03-30T11:47:31.913Z,100044.78
2023-03-30T11:50:16.328Z,100069.66
2023-03-30T11:52:55.442Z,100063.31
2023-03-30T11:55:56.411Z,100042.25
2023-03-30T11:58:34.060Z,100047.66
2023-03-30T12:01:16.486Z,100034.22
2023-03-30T12:03:50.964Z,100033.03
2023-03-30T12:06:29.828Z,100048.56
2023-03-30T12:09:13.861Z,100042.13
2023-03-30T12:11:48.578Z,100034.69
2023-03-30T12:14:32.086Z,100025.50
2023-03-30T12:17:07.642Z,100041.22
2023-03-30T12:19:55.499Z,100026.69
2023-03-30T12:22:31.312Z,100025.22
2023-03-30T12:25:08.079Z,100039.81
2023-03-30T12:27:38.830Z,100038.13
2023-03-30T12:30:16.146Z,100029.03
2023-03-30T12:33:00.468Z,100029.50
2023-03-30T12:36:04.719Z,100022.72
2023-03-30T12:38:39.829Z,100023.31
2023-03-30T12:41:15.881Z,100018.47
2023-03-30T12:44:15.458Z,100019.06
2023-03-30T12:46:50.831Z,100023.91
2023-03-30T12:49:31.719Z,100024.06
2023-03-30T12:52:10.799Z,100021.28
2023-03-30T12:54:57.894Z,100026.69
2023-03-30T12:57:38.018Z,100020.06
2023-03-30T13:00:48.204Z,100004.94
2023-03-30T13:03:38.590Z,99999.94
2023-03-30T13:06:11.679Z,100003.03
2023-03-30T13:08:42.718Z,100001.69
2023-03-30T13:11:15.994Z,99999.69
2023-03-30T13:13:52.577Z,99998.53
2023-03-30T13:16:51.625Z,99993.00
2023-03-30T13:19:27.688Z,99983.47
2023-03-30T13:22:05.235Z,99999.16
2023-03-30T13:24:53.653Z,99978.63
2023-03-30T13:27:41.430Z,99968.06
2023-03-30T13:30:20.902Z,99949.16
2023-03-30T13:33:06.501Z,99979.97
2023-03-30T13:36:06.797Z,99944.53
2023-03-30T13:38:55.084Z,99958.91
2023-03-30T13:41:55.406Z,99956.56
2023-03-30T13:44:43.172Z,99966.75
2023-03-30T13:47:28.938Z,99955.91
2023-03-30T13:50:04.616Z,99925.88
2023-03-30T13:52:38.677Z,99930.63
2023-03-30T13:55:33.119Z,99921.72
2023-03-30T13:58:06.411Z,99912.03
2023-03-30T14:00:45.281Z,99906.53
2023-03-30T14:03:32.974Z,99904.13
2023-03-30T14:06:08.016Z,99890.63
2023-03-30T14:08:38.650Z,99878.72
2023-03-30T14:11:21.785Z,99887.69
2023-03-30T14:13:54.844Z,99900.63
2023-03-30T14:16:25.382Z,99898.78
2023-03-30T14:18:55.024Z,99888.22
2023-03-30T14:21:24.813Z,99867.56
2023-03-30T14:23:55.441Z,99866.69
2023-03-30T14:26:26.476Z,99864.09
2023-03-30T14:28:58.841Z,99874.00
2023-03-30T14:31:28.077Z,99862.00
2023-03-30T14:33:56.838Z,99866.22
2023-03-30T14:36:25.577Z,99863.16
2023-03-30T14:38:55.679Z,99863.16
2023-03-30T14:41:27.644Z,99851.38
2023-03-30T14:44:00.982Z,99846.63
2023-03-30T14:46:34.190Z,99846.88
2023-03-30T14:49:03.904Z,99835.53
2023-03-30T14:51:40.636Z,99833.22
2023-03-30T14:54:11.693Z,99833.16
2023-03-30T14:56:40.808Z,99822.38
2023-03-30T14:59:14.675Z,99816.00
2023-03-30T15:01:44.307Z,99820.13
2023-03-30T15:04:16.417Z,99808.88
2023-03-30T15:06:45.399Z,99808.22
2023-03-30T15:09:18.261Z,99811.13
2023-03-30T15:11:49.196Z,99805.94
2023-03-30T15:14:22.610Z,99790.38
2023-03-30T15:16:54.706Z,99784.13
2023-03-30T15:19:28.948Z,99783.84
2023-03-30T15:22:03.559Z,99777.78
2023-03-30T15:24:35.195Z,99778.53
2023-03-30T15:27:07.066Z,99788.25
2023-03-30T15:29:36.782Z,99767.34
2023-03-30T15:32:12.516Z,99759.16
2023-03-30T15:35:00.286Z,99749.63
2023-03-30T15:37:28.547Z,99739.66
2023-03-30T15:39:58.412Z,99748.13
2023-03-30T15:42:32.652Z,99746.97
2023-03-30T15:45:08.626Z,99735.88
2023-03-30T15:47:37.616Z,99729.75
2023-03-30T15:50:06.263Z,99735.91
2023-03-30T15:52:37.005Z,99728.09
2023-03-30T15:55:09.511Z,99713.41
2023-03-30T15:57:43.328Z,99714.19
2023-03-30T16:00:19.931Z,99704.91
2023-03-30T16:02:57.619Z,99714.75
2023-03-30T16:05:28.721Z,99681.44
2023-03-30T16:08:05.497Z,99688.66
2023-03-30T16:10:34.590Z,99693.72
2023-03-30T16:13:07.465Z,99684.78
2023-03-30T16:15:40.881Z,99671.53
2023-03-30T16:18:09.155Z,99664.69
2023-03-30T16:20:37.377Z,99672.22
2023-03-30T16:23:08.501Z,99663.47
2023-03-30T16:28:17.309Z,99665.88
2023-03-30T16:30:49.863Z,99658.31
2023-03-30T16:33:18.023Z,99648.50
2023-03-30T16:35:46.360Z,99641.16
2023-03-30T16:38:17.558Z,99621.81
2023-03-30T16:40:48.531Z,99629.47
2023-03-30T16:43:16.728Z,99627.47
2023-03-30T16:45:47.593Z,99624.28
2023-03-30T16:48:16.209Z,99618.00
2023-03-30T16:50:47.484Z,99612.91
2023-03-30T16:53:15.610Z,99608.31
2023-03-30T16:55:48.013Z,99591.25
2023-03-30T16:58:20.782Z,99580.94
2023-03-30T17:00:56.566Z,99584.88
2023-03-30T17:03:24.731Z,99567.56
2023-03-30T17:05:52.882Z,99562.78
2023-03-30T17:08:25.243Z,99552.38
2023-03-30T17:10:56.630Z,99549.03
2023-03-30T17:13:27.955Z,99538.44
2023-03-30T17:15:58.493Z,99517.44
2023-03-30T17:18:27.400Z,99512.03
2023-03-30T17:20:57.018Z,99502.28
2023-03-30T17:23:26.990Z,99491.88
2023-03-30T17:25:56.261Z,99487.91
2023-03-30T17:28:29.264Z,99479.56
2023-03-30T17:31:02.470Z,99474.34
2023-03-30T17:33:32.111Z,99459.59
2023-03-30T17:36:04.048Z,99451.06
2023-03-30T17:38:42.841Z,99432.00
2023-03-30T17:41:22.662Z,99423.47
2023-03-30T17:44:08.755Z,99413.09
2023-03-30T17:46:38.324Z,99403.31
2023-03-30T17:49:15.825Z,99396.00
2023-03-30T17:51:43.842Z,99389.72
2023-03-30T17:54:12.095Z,99379.31
2023-03-30T17:56:40.133Z,99366.22
2023-03-30T17:59:11.368Z,99355.84
2023-03-30T18:01:43.571Z,99337.16
2023-03-30T18:04:12.064Z,99345.56
2023-03-30T18:06:41.300Z,99337.31
2023-03-30T18:09:16.349Z,99330.81
2023-03-30T18:11:44.543Z,99313.56
2023-03-30T18:14:12.906Z,99303.78
2023-03-30T18:16:44.147Z,99299.25
2023-03-30T18:19:13.042Z,99298.56
2023-03-30T18:21:41.611Z,99277.13
2023-03-30T18:24:10.158Z,99281.63
2023-03-30T18:26:40.065Z,99270.16
2023-03-30T18:29:20.659Z,99258.03
2023-03-30T18:31:50.677Z,99251.94
2023-03-30T18:34:19.780Z,99250.00
2023-03-30T18:36:49.719Z,99240.41
2023-03-30T18:39:19.939Z,99227.88
2023-03-30T18:41:48.485Z,99217.06
2023-03-30T18:44:17.126Z,99201.28
2023-03-30T18:46:47.027Z,99195.63
2023-03-30T18:49:20.863Z,99198.66
2023-03-30T18:51:49.102Z,99181.91
2023-03-30T18:54:17.144Z,99163.06
2023-03-30T18:56:46.092Z,99155.84
2023-03-30T18:59:14.412Z,99146.94
2023-03-30T19:01:42.459Z,99130.34
2023-03-30T19:04:12.145Z,99125.16
2023-03-30T19:06:42.115Z,99110.91
2023-03-30T19:09:10.538Z,99098.03
2023-03-30T19:11:38.710Z,99097.97
2023-03-30T19:14:06.801Z,99088.03
2023-03-30T19:16:35.108Z,99089.44
2023-03-30T19:19:03.287Z,99077.47
2023-03-30T19:21:31.563Z,99072.47
2023-03-30T19:24:02.122Z,99068.75
2023-03-30T19:26:30.575Z,99045.50
2023-03-30T19:28:58.944Z,99040.72
2023-03-30T19:31:29.620Z,99034.50
2023-03-30T19:33:57.708Z,99032.59
2023-03-30T19:36:27.352Z,99029.91
2023-03-30T19:38:55.745Z,99032.34
2023-03-30T19:41:25.213Z,99020.09
2023-03-30T19:43:53.402Z,98994.47
2023-03-30T19:46:22.210Z,98996.31
2023-03-30T19:48:50.739Z,98986.41
2023-03-30T19:51:19.201Z,98984.34
2023-03-30T19:53:49.090Z,98967.22
2023-03-30T19:56:17.123Z,98958.13
2023-03-30T19:58:46.931Z,98943.66
2023-03-30T20:01:15.024Z,98934.75
2023-03-30T20:03:43.483Z,98934.41
2023-03-30T20:06:12.878Z,98936.22
2023-03-30T20:08:56.033Z,98921.38
2023-03-30T20:11:47.357Z,98912.50
2023-03-30T20:14:17.659Z,98903.81
2023-03-30T20:16:47.962Z,98882.31
2023-03-30T20:19:26.584Z,98865.34
2023-03-30T20:22:01.038Z,98854.19
2023-03-30T20:24:32.106Z,98843.06
2023-03-30T20:27:00.529Z,98833.34
2023-03-30T20:29:58.430Z,98818.22
2023-03-30T20:32:27.223Z,98813.72
2023-03-30T20:34:55.630Z,98795.06
2023-03-30T20:37:24.681Z,98779.41
2023-03-30T20:39:53.626Z,98757.50
2023-03-30T20:42:26.520Z,98768.06
2023-03-30T20:44:59.668Z,98738.88
2023-03-30T20:47:31.281Z,98730.22
2023-03-30T20:50:02.988Z,98730.06
2023-03-30T20:52:38.171Z,98708.53
2023-03-30T20:55:11.146Z,98708.78
2023-03-30T20:57:43.842Z,98703.56
2023-03-30T21:00:25.098Z,98690.34
2023-03-30T21:03:07.476Z,98685.59
2023-03-30T21:05:37.334Z,98667.41
2023-03-30T21:08:08.734Z,98659.97
2023-03-30T21:10:41.283Z,98649.66
2023-03-30T21:13:12.186Z,98645.91
2023-03-30T21:15:43.133Z,98633.53
2023-03-30T21:18:11.476Z,98634.34
2023-03-30T21:20:41.553Z,98621.72
2023-03-30T21:23:12.233Z,98612.84
2023-03-30T21:25:44.200Z,98596.94
2023-03-30T21:28:14.936Z,98587.00
2023-03-30T21:30:59.954Z,98585.56
2023-03-30T21:33:29.873Z,98564.28
2023-03-30T21:36:00.531Z,98562.81
2023-03-30T21:38:31.559Z,98553.09
2023-03-30T21:41:01.811Z,98542.56
2023-03-30T21:43:31.905Z,98537.78
2023-03-30T21:46:04.642Z,98502.03
2023-03-30T21:48:35.477Z,98495.00
2023-03-30T21:51:11.933Z,98484.66
2023-03-30T21:53:40.252Z,98466.25
2023-03-30T21:56:09.267Z,98462.31
2023-03-30T21:58:39.134Z,98459.63
2023-03-30T22:01:12.787Z,98445.97
2023-03-30T22:03:42.705Z,98439.16
2023-03-30T22:06:13.404Z,98428.63
2023-03-30T22:08:41.751Z,98415.19
2023-03-30T22:11:13.133Z,98403.19
2023-03-30T22:13:42.026Z,98394.09
2023-03-30T22:16:14.130Z,98383.53
2023-03-30T22:18:43.248Z,98378.78
2023-03-30T22:21:14.824Z,98363.91
2023-03-30T22:23:42.960Z,98356.66
2023-03-30T22:26:11.637Z,98357.28
2023-03-30T22:28:40.144Z,98356.66
2023-03-30T22:31:08.710Z,98342.41
2023-03-30T22:33:38.820Z,98335.78
2023-03-30T22:36:14.944Z,98323.59
2023-03-30T22:38:43.320Z,98312.22
2023-03-30T22:41:11.526Z,98313.06
2023-03-30T22:43:40.570Z,98309.13
2023-03-30T22:46:09.228Z,98300.66
2023-03-30T22:48:41.650Z,98294.47
2023-03-30T22:51:14.318Z,98280.19
2023-03-30T22:53:42.563Z,98274.81
2023-03-30T22:56:10.692Z,98256.19
2023-03-30T22:58:38.643Z,98252.69
2023-03-30T23:01:10.818Z,98241.75
2023-03-30T23:03:40.510Z,98239.25
2023-03-30T23:06:09.586Z,98216.75
2023-03-30T23:08:39.380Z,98212.19
2023-03-30T23:11:08.439Z,98210.31
2023-03-30T23:13:38.165Z,98197.50
2023-03-30T23:16:08.391Z,98187.38
2023-03-30T23:18:37.317Z,98187.38
2023-03-30T23:21:07.933Z,98175.78
2023-03-30T23:23:37.345Z,98166.28
2023-03-30T23:26:09.425Z,98161.75
2023-03-30T23:28:39.334Z,98153.06
2023-03-30T23:31:08.620Z,98146.88
2023-03-30T23:33:38.371Z,98134.47
2023-03-30T23:36:10.684Z,98130.31
2023-03-30T23:38:39.224Z,98121.66
2023-03-30T23:41:08.248Z,98111.72
2023-03-30T23:43:37.242Z,98107.59
2023-03-30T23:46:06.302Z,98106.56
2023-03-30T23:48:34.838Z,98092.97
2023-03-30T23:51:03.174Z,98077.66
2023-03-30T23:53:33.091Z,98070.41
2023-03-30T23:56:06.173Z,98060.09
2023-03-30T23:58:34.761Z,98059.88
